sensor_id;sensor_type;location;lat;lon;timestamp;temperature;humidity
55026;DHT22;40925;45.666;18.994;2024-01-11T00:00:39;90.20;2176.00
55026;DHT22;40925;45.666;18.994;2024-01-11T00:03:05;90.20;2176.00
55026;DHT22;40925;45.666;18.994;2024-01-11T00:05:33;90.20;2176.00
55026;DHT22;40925;45.666;18.994;2024-01-11T00:07:59;90.30;2176.00
55026;DHT22;40925;45.666;18.994;2024-01-11T00:10:24;90.30;2176.00
55026;DHT22;40925;45.666;18.994;2024-01-11T00:12:50;90.40;2176.00
55026;DHT22;40925;45.666;18.994;2024-01-11T00:15:16;90.30;2176.00
55026;DHT22;40925;45.666;18.994;2024-01-11T00:17:42;90.30;2176.00
55026;DHT22;40925;45.666;18.994;2024-01-11T00:20:08;90.30;2176.00
55026;DHT22;40925;45.666;18.994;2024-01-11T00:22:34;90.30;2176.00
55026;DHT22;40925;45.666;18.994;2024-01-11T00:25:00;90.30;2176.00
55026;DHT22;40925;45.666;18.994;2024-01-11T00:27:26;90.40;2176.00
55026;DHT22;40925;45.666;18.994;2024-01-11T00:29:52;90.40;2176.00
55026;DHT22;40925;45.666;18.994;2024-01-11T00:32:18;90.40;2176.00
55026;DHT22;40925;45.666;18.994;2024-01-11T00:34:47;90.30;2048.00
55026;DHT22;40925;45.666;18.994;2024-01-11T00:37:13;90.40;2176.00
55026;DHT22;40925;45.666;18.994;2024-01-11T00:39:39;90.40;2176.00
55026;DHT22;40925;45.666;18.994;2024-01-11T00:42:05;90.50;2176.00
55026;DHT22;40925;45.666;18.994;2024-01-11T00:44:32;90.50;2176.00
55026;DHT22;40925;45.666;18.994;2024-01-11T00:46:59;90.40;1945.60
55026;DHT22;40925;45.666;18.994;2024-01-11T00:49:24;90.40;1817.60
55026;DHT22;40925;45.666;18.994;2024-01-11T00:51:50;90.40;1996.80
55026;DHT22;40925;45.666;18.994;2024-01-11T00:54:16;90.40;1843.20
55026;DHT22;40925;45.666;18.994;2024-01-11T00:56:41;90.40;2176.00
55026;DHT22;40925;45.666;18.994;2024-01-11T00:59:07;90.50;2176.00
55026;DHT22;40925;45.666;18.994;2024-01-11T01:01:37;90.50;2176.00
55026;DHT22;40925;45.666;18.994;2024-01-11T01:04:03;90.50;2176.00
55026;DHT22;40925;45.666;18.994;2024-01-11T01:06:28;90.50;1894.40
55026;DHT22;40925;45.666;18.994;2024-01-11T01:08:59;90.50;2176.00
55026;DHT22;40925;45.666;18.994;2024-01-11T01:11:25;115.20;2176.00
55026;DHT22;40925;45.666;18.994;2024-01-11T01:13:51;115.30;2176.00
55026;DHT22;40925;45.666;18.994;2024-01-11T01:16:17;115.40;2176.00
55026;DHT22;40925;45.666;18.994;2024-01-11T01:18:43;115.40;2176.00
55026;DHT22;40925;45.666;18.994;2024-01-11T01:21:09;115.40;2176.00
55026;DHT22;40925;45.666;18.994;2024-01-11T01:23:35;115.40;2176.00
55026;DHT22;40925;45.666;18.994;2024-01-11T01:26:01;115.50;2176.00
55026;DHT22;40925;45.666;18.994;2024-01-11T01:28:26;115.50;2176.00
55026;DHT22;40925;45.666;18.994;2024-01-11T01:30:55;115.60;2176.00
55026;DHT22;40925;45.666;18.994;2024-01-11T01:33:21;115.50;2176.00
55026;DHT22;40925;45.666;18.994;2024-01-11T01:35:47;115.60;2176.00
55026;DHT22;40925;45.666;18.994;2024-01-11T01:38:16;115.60;2176.00
55026;DHT22;40925;45.666;18.994;2024-01-11T01:40:46;115.60;2176.00
55026;DHT22;40925;45.666;18.994;2024-01-11T01:43:14;115.60;2176.00
55026;DHT22;40925;45.666;18.994;2024-01-11T01:45:40;115.60;2073.60
55026;DHT22;40925;45.666;18.994;2024-01-11T01:48:06;115.70;2048.00
55026;DHT22;40925;45.666;18.994;2024-01-11T01:50:32;115.60;1945.60
55026;DHT22;40925;45.666;18.994;2024-01-11T01:52:58;115.60;2176.00
55026;DHT22;40925;45.666;18.994;2024-01-11T01:55:26;115.70;2176.00
55026;DHT22;40925;45.666;18.994;2024-01-11T01:57:53;115.70;2176.00
55026;DHT22;40925;45.666;18.994;2024-01-11T02:00:20;115.80;2176.00
55026;DHT22;40925;45.666;18.994;2024-01-11T02:02:46;115.90;2176.00
55026;DHT22;40925;45.666;18.994;2024-01-11T02:05:15;116.00;2176.00
55026;DHT22;40925;45.666;18.994;2024-01-11T02:07:43;116.00;2176.00
55026;DHT22;40925;45.666;18.994;2024-01-11T02:10:09;116.00;2176.00
55026;DHT22;40925;45.666;18.994;2024-01-11T02:12:36;116.00;2176.00
55026;DHT22;40925;45.666;18.994;2024-01-11T02:15:05;116.10;2176.00
55026;DHT22;40925;45.666;18.994;2024-01-11T02:17:35;140.80;2176.00
55026;DHT22;40925;45.666;18.994;2024-01-11T02:20:01;140.80;2176.00
55026;DHT22;40925;45.666;18.994;2024-01-11T02:22:38;140.80;2176.00
55026;DHT22;40925;45.666;18.994;2024-01-11T02:25:09;116.10;2176.00
55026;DHT22;40925;45.666;18.994;2024-01-11T02:27:48;116.00;2176.00
55026;DHT22;40925;45.666;18.994;2024-01-11T02:30:14;116.00;2176.00
55026;DHT22;40925;45.666;18.994;2024-01-11T02:32:52;116.10;2176.00
55026;DHT22;40925;45.666;18.994;2024-01-11T02:35:18;140.90;2176.00
55026;DHT22;40925;45.666;18.994;2024-01-11T02:37:48;141.00;2176.00
55026;DHT22;40925;45.666;18.994;2024-01-11T02:40:16;141.00;2176.00
55026;DHT22;40925;45.666;18.994;2024-01-11T02:42:44;141.10;2176.00
55026;DHT22;40925;45.666;18.994;2024-01-11T02:45:11;141.00;2176.00
55026;DHT22;40925;45.666;18.994;2024-01-11T02:47:38;141.10;2176.00
55026;DHT22;40925;45.666;18.994;2024-01-11T02:50:05;141.10;2176.00
55026;DHT22;40925;45.666;18.994;2024-01-11T02:52:33;141.10;2176.00
55026;DHT22;40925;45.666;18.994;2024-01-11T02:54:58;141.10;2176.00
55026;DHT22;40925;45.666;18.994;2024-01-11T02:57:24;141.10;2176.00
55026;DHT22;40925;45.666;18.994;2024-01-11T02:59:51;141.00;2176.00
55026;DHT22;40925;45.666;18.994;2024-01-11T03:02:17;141.00;2176.00
55026;DHT22;40925;45.666;18.994;2024-01-11T03:04:42;141.00;2176.00
55026;DHT22;40925;45.666;18.994;2024-01-11T03:07:08;140.90;2176.00
55026;DHT22;40925;45.666;18.994;2024-01-11T03:09:34;141.00;2176.00
55026;DHT22;40925;45.666;18.994;2024-01-11T03:12:00;140.90;2176.00
55026;DHT22;40925;45.666;18.994;2024-01-11T03:14:28;140.90;2176.00
55026;DHT22;40925;45.666;18.994;2024-01-11T03:16:54;140.80;2176.00
55026;DHT22;40925;45.666;18.994;2024-01-11T03:19:20;140.80;2176.00
55026;DHT22;40925;45.666;18.994;2024-01-11T03:21:46;140.80;2176.00
55026;DHT22;40925;45.666;18.994;2024-01-11T03:24:13;140.80;2176.00
55026;DHT22;40925;45.666;18.994;2024-01-11T03:26:39;140.80;2176.00
55026;DHT22;40925;45.666;18.994;2024-01-11T03:29:05;140.80;2176.00
55026;DHT22;40925;45.666;18.994;2024-01-11T03:31:31;140.80;2176.00
55026;DHT22;40925;45.666;18.994;2024-01-11T03:33:57;140.80;2176.00
55026;DHT22;40925;45.666;18.994;2024-01-11T03:36:26;140.80;2176.00
55026;DHT22;40925;45.666;18.994;2024-01-11T03:38:51;140.80;2176.00
55026;DHT22;40925;45.666;18.994;2024-01-11T03:41:17;140.90;2176.00
55026;DHT22;40925;45.666;18.994;2024-01-11T03:43:46;140.90;2176.00
55026;DHT22;40925;45.666;18.994;2024-01-11T03:46:11;140.90;2176.00
55026;DHT22;40925;45.666;18.994;2024-01-11T03:48:37;140.90;2176.00
55026;DHT22;40925;45.666;18.994;2024-01-11T03:51:03;140.90;2176.00
55026;DHT22;40925;45.666;18.994;2024-01-11T03:53:29;140.90;2176.00
55026;DHT22;40925;45.666;18.994;2024-01-11T03:55:58;140.90;2176.00
55026;DHT22;40925;45.666;18.994;2024-01-11T03:58:23;140.90;2176.00
55026;DHT22;40925;45.666;18.994;2024-01-11T04:00:49;140.90;2176.00
55026;DHT22;40925;45.666;18.994;2024-01-11T04:03:15;140.90;2176.00
55026;DHT22;40925;45.666;18.994;2024-01-11T04:05:41;140.80;2176.00
55026;DHT22;40925;45.666;18.994;2024-01-11T04:08:07;140.80;2176.00
55026;DHT22;40925;45.666;18.994;2024-01-11T04:10:32;140.80;2176.00
55026;DHT22;40925;45.666;18.994;2024-01-11T04:12:59;140.80;2176.00
55026;DHT22;40925;45.666;18.994;2024-01-11T04:15:25;140.80;2176.00
55026;DHT22;40925;45.666;18.994;2024-01-11T04:17:51;140.80;2176.00
55026;DHT22;40925;45.666;18.994;2024-01-11T04:20:17;140.80;2176.00
55026;DHT22;40925;45.666;18.994;2024-01-11T04:22:43;140.80;2176.00
55026;DHT22;40925;45.666;18.994;2024-01-11T04:25:09;140.80;2176.00
55026;DHT22;40925;45.666;18.994;2024-01-11T04:27:38;140.80;2176.00
55026;DHT22;40925;45.666;18.994;2024-01-11T04:30:04;140.80;2176.00
55026;DHT22;40925;45.666;18.994;2024-01-11T04:32:30;140.80;2176.00
55026;DHT22;40925;45.666;18.994;2024-01-11T04:34:55;140.80;2176.00
55026;DHT22;40925;45.666;18.994;2024-01-11T04:37:21;140.80;2176.00
55026;DHT22;40925;45.666;18.994;2024-01-11T04:39:47;116.10;2176.00
55026;DHT22;40925;45.666;18.994;2024-01-11T04:42:13;116.10;2176.00
55026;DHT22;40925;45.666;18.994;2024-01-11T04:44:39;116.10;2176.00
55026;DHT22;40925;45.666;18.994;2024-01-11T04:47:05;116.10;2176.00
55026;DHT22;40925;45.666;18.994;2024-01-11T04:49:31;116.10;2176.00
55026;DHT22;40925;45.666;18.994;2024-01-11T04:51:56;116.00;2176.00
55026;DHT22;40925;45.666;18.994;2024-01-11T04:54:22;116.00;2176.00
55026;DHT22;40925;45.666;18.994;2024-01-11T04:56:48;116.00;2176.00
55026;DHT22;40925;45.666;18.994;2024-01-11T04:59:13;116.00;2176.00
55026;DHT22;40925;45.666;18.994;2024-01-11T05:01:39;116.00;2176.00
55026;DHT22;40925;45.666;18.994;2024-01-11T05:04:06;116.00;2176.00
55026;DHT22;40925;45.666;18.994;2024-01-11T05:06:32;116.00;2176.00
55026;DHT22;40925;45.666;18.994;2024-01-11T05:09:01;116.00;2176.00
55026;DHT22;40925;45.666;18.994;2024-01-11T05:11:27;116.00;2176.00
55026;DHT22;40925;45.666;18.994;2024-01-11T05:13:53;116.00;2176.00
55026;DHT22;40925;45.666;18.994;2024-01-11T05:16:20;116.00;2176.00
55026;DHT22;40925;45.666;18.994;2024-01-11T05:18:45;116.00;2176.00
55026;DHT22;40925;45.666;18.994;2024-01-11T05:21:11;116.00;2176.00
55026;DHT22;40925;45.666;18.994;2024-01-11T05:23:37;116.00;2176.00
55026;DHT22;40925;45.666;18.994;2024-01-11T05:26:06;116.00;2176.00
55026;DHT22;40925;45.666;18.994;2024-01-11T05:28:31;116.00;2176.00
55026;DHT22;40925;45.666;18.994;2024-01-11T05:30:57;116.10;2176.00
55026;DHT22;40925;45.666;18.994;2024-01-11T05:33:23;116.10;2176.00
55026;DHT22;40925;45.666;18.994;2024-01-11T05:35:48;116.10;2176.00
55026;DHT22;40925;45.666;18.994;2024-01-11T05:38:14;116.10;2176.00
55026;DHT22;40925;45.666;18.994;2024-01-11T05:40:40;140.80;2176.00
55026;DHT22;40925;45.666;18.994;2024-01-11T05:43:05;140.80;2176.00
55026;DHT22;40925;45.666;18.994;2024-01-11T05:45:31;140.80;2176.00
55026;DHT22;40925;45.666;18.994;2024-01-11T05:47:59;140.80;2176.00
55026;DHT22;40925;45.666;18.994;2024-01-11T05:50:25;140.90;2176.00
55026;DHT22;40925;45.666;18.994;2024-01-11T05:52:52;140.90;2176.00
55026;DHT22;40925;45.666;18.994;2024-01-11T05:55:19;141.00;2176.00
55026;DHT22;40925;45.666;18.994;2024-01-11T05:57:45;141.00;2176.00
55026;DHT22;40925;45.666;18.994;2024-01-11T06:00:12;141.00;2176.00
55026;DHT22;40925;45.666;18.994;2024-01-11T06:02:41;141.00;2176.00
55026;DHT22;40925;45.666;18.994;2024-01-11T06:05:10;141.00;2176.00
55026;DHT22;40925;45.666;18.994;2024-01-11T06:07:37;141.00;2176.00
55026;DHT22;40925;45.666;18.994;2024-01-11T06:10:04;141.00;2176.00
55026;DHT22;40925;45.666;18.994;2024-01-11T06:12:31;141.00;2176.00
55026;DHT22;40925;45.666;18.994;2024-01-11T06:14:57;141.00;2176.00
55026;DHT22;40925;45.666;18.994;2024-01-11T06:17:23;141.00;2176.00
55026;DHT22;40925;45.666;18.994;2024-01-11T06:19:49;141.00;2176.00
55026;DHT22;40925;45.666;18.994;2024-01-11T06:22:15;141.00;2176.00
55026;DHT22;40925;45.666;18.994;2024-01-11T06:24:41;141.00;2176.00
55026;DHT22;40925;45.666;18.994;2024-01-11T06:27:07;140.90;2176.00
55026;DHT22;40925;45.666;18.994;2024-01-11T06:29:32;141.00;2176.00
55026;DHT22;40925;45.666;18.994;2024-01-11T06:31:58;141.00;2176.00
55026;DHT22;40925;45.666;18.994;2024-01-11T06:34:24;140.90;2176.00
55026;DHT22;40925;45.666;18.994;2024-01-11T06:36:50;140.90;2176.00
55026;DHT22;40925;45.666;18.994;2024-01-11T06:39:18;140.90;2176.00
55026;DHT22;40925;45.666;18.994;2024-01-11T06:41:44;141.00;2176.00
55026;DHT22;40925;45.666;18.994;2024-01-11T06:44:09;141.00;2176.00
55026;DHT22;40925;45.666;18.994;2024-01-11T06:46:35;141.10;2176.00
55026;DHT22;40925;45.666;18.994;2024-01-11T06:49:01;141.00;2176.00
55026;DHT22;40925;45.666;18.994;2024-01-11T06:51:27;141.10;2176.00
55026;DHT22;40925;45.666;18.994;2024-01-11T06:53:53;141.00;2176.00
55026;DHT22;40925;45.666;18.994;2024-01-11T06:56:19;140.90;2176.00
55026;DHT22;40925;45.666;18.994;2024-01-11T06:58:47;116.10;2176.00
55026;DHT22;40925;45.666;18.994;2024-01-11T07:01:13;115.90;2176.00
55026;DHT22;40925;45.666;18.994;2024-01-11T07:03:41;90.40;2176.00
55026;DHT22;40925;45.666;18.994;2024-01-11T07:06:07;64.40;2201.60
55026;DHT22;40925;45.666;18.994;2024-01-11T07:08:33;38.50;2201.60
55026;DHT22;40925;45.666;18.994;2024-01-11T07:11:07;13.50;2201.60
55026;DHT22;40925;45.666;18.994;2024-01-11T07:13:33;0.10;2201.60
55026;DHT22;40925;45.666;18.994;2024-01-11T07:15:59;25.80;2201.60
55026;DHT22;40925;45.666;18.994;2024-01-11T07:18:25;26.40;2201.60
55026;DHT22;40925;45.666;18.994;2024-01-11T07:20:52;26.30;2201.60
55026;DHT22;40925;45.666;18.994;2024-01-11T07:23:18;51.20;2227.20
55026;DHT22;40925;45.666;18.994;2024-01-11T07:25:44;77.00;2227.20
55026;DHT22;40925;45.666;18.994;2024-01-11T07:28:11;102.90;2227.20
55026;DHT22;40925;45.666;18.994;2024-01-11T07:30:36;103.20;2227.20
55026;DHT22;40925;45.666;18.994;2024-01-11T07:33:02;128.80;2252.80
55026;DHT22;40925;45.666;18.994;2024-01-11T07:35:30;154.50;2227.20
55026;DHT22;40925;45.666;18.994;2024-01-11T07:37:57;180.00;2150.40
55026;DHT22;40925;45.666;18.994;2024-01-11T07:40:23;180.10;1945.60
55026;DHT22;40925;45.666;18.994;2024-01-11T07:42:51;205.00;1996.80
55026;DHT22;40925;45.666;18.994;2024-01-11T07:45:17;205.40;1868.80
55026;DHT22;40925;45.666;18.994;2024-01-11T07:47:43;230.40;1843.20
55026;DHT22;40925;45.666;18.994;2024-01-11T07:50:09;230.80;1843.20
55026;DHT22;40925;45.666;18.994;2024-01-11T07:52:39;231.00;1766.40
55026;DHT22;40925;45.666;18.994;2024-01-11T07:55:08;231.00;1740.80
55026;DHT22;40925;45.666;18.994;2024-01-11T07:57:37;256.10;1689.60
55026;DHT22;40925;45.666;18.994;2024-01-11T08:00:06;256.50;1664.00
55026;DHT22;40925;45.666;18.994;2024-01-11T08:02:33;256.80;1638.40
55026;DHT22;40925;45.666;18.994;2024-01-11T08:04:59;256.40;1638.40
55026;DHT22;40925;45.666;18.994;2024-01-11T08:07:28;231.20;1638.40
55026;DHT22;40925;45.666;18.994;2024-01-11T08:09:55;230.80;1689.60
55026;DHT22;40925;45.666;18.994;2024-01-11T08:12:21;231.10;1664.00
55026;DHT22;40925;45.666;18.994;2024-01-11T08:14:46;256.30;1664.00
55026;DHT22;40925;45.666;18.994;2024-01-11T08:17:13;256.70;1612.80
55026;DHT22;40925;45.666;18.994;2024-01-11T08:19:40;256.80;1587.20
55026;DHT22;40925;45.666;18.994;2024-01-11T08:22:06;281.70;1561.60
55026;DHT22;40925;45.666;18.994;2024-01-11T08:24:32;256.50;1587.20
55026;DHT22;40925;45.666;18.994;2024-01-11T08:26:58;256.70;1587.20
55026;DHT22;40925;45.666;18.994;2024-01-11T08:29:23;256.90;1561.60
55026;DHT22;40925;45.666;18.994;2024-01-11T08:31:50;256.70;1587.20
55026;DHT22;40925;45.666;18.994;2024-01-11T08:34:16;256.30;1587.20
55026;DHT22;40925;45.666;18.994;2024-01-11T08:36:42;256.90;1561.60
55026;DHT22;40925;45.666;18.994;2024-01-11T08:39:08;281.90;1561.60
55026;DHT22;40925;45.666;18.994;2024-01-11T08:41:34;282.10;1561.60
55026;DHT22;40925;45.666;18.994;2024-01-11T08:44:03;282.20;1536.00
55026;DHT22;40925;45.666;18.994;2024-01-11T08:46:33;281.80;1536.00
55026;DHT22;40925;45.666;18.994;2024-01-11T08:49:00;231.20;1561.60
55026;DHT22;40925;45.666;18.994;2024-01-11T08:51:27;231.10;1638.40
55026;DHT22;40925;45.666;18.994;2024-01-11T08:53:52;231.30;1612.80
55026;DHT22;40925;45.666;18.994;2024-01-11T08:56:18;205.70;1638.40
55026;DHT22;40925;45.666;18.994;2024-01-11T08:58:44;205.40;1689.60
55026;DHT22;40925;45.666;18.994;2024-01-11T09:01:11;205.30;1715.20
55026;DHT22;40925;45.666;18.994;2024-01-11T09:03:37;205.50;1740.80
55026;DHT22;40925;45.666;18.994;2024-01-11T09:06:03;205.40;1715.20
55026;DHT22;40925;45.666;18.994;2024-01-11T09:08:29;230.50;1715.20
55026;DHT22;40925;45.666;18.994;2024-01-11T09:10:59;230.50;1715.20
55026;DHT22;40925;45.666;18.994;2024-01-11T09:13:25;205.60;1689.60
55026;DHT22;40925;45.666;18.994;2024-01-11T09:15:55;230.40;1715.20
55026;DHT22;40925;45.666;18.994;2024-01-11T09:18:21;205.60;1689.60
55026;DHT22;40925;45.666;18.994;2024-01-11T09:20:48;205.20;1715.20
55026;DHT22;40925;45.666;18.994;2024-01-11T09:23:14;205.10;1715.20
55026;DHT22;40925;45.666;18.994;2024-01-11T09:25:41;179.80;1766.40
55026;DHT22;40925;45.666;18.994;2024-01-11T09:28:06;180.10;1792.00
55026;DHT22;40925;45.666;18.994;2024-01-11T09:30:33;180.10;1766.40
55026;DHT22;40925;45.666;18.994;2024-01-11T09:32:58;205.10;1740.80
55026;DHT22;40925;45.666;18.994;2024-01-11T09:35:24;180.00;1740.80
55026;DHT22;40925;45.666;18.994;2024-01-11T09:45:13;179.90;1766.40
55026;DHT22;40925;45.666;18.994;2024-01-11T09:47:39;179.80;1792.00
55026;DHT22;40925;45.666;18.994;2024-01-11T09:50:06;179.90;1792.00
55026;DHT22;40925;45.666;18.994;2024-01-11T09:55:10;154.30;1868.80
55026;DHT22;40925;45.666;18.994;2024-01-11T09:57:37;154.00;1868.80
55026;DHT22;40925;45.666;18.994;2024-01-11T10:00:06;179.20;1868.80
55026;DHT22;40925;45.666;18.994;2024-01-11T10:02:33;154.30;1868.80
55026;DHT22;40925;45.666;18.994;2024-01-11T10:04:59;154.20;1894.40
55026;DHT22;40925;45.666;18.994;2024-01-11T10:07:25;179.30;1894.40
55026;DHT22;40925;45.666;18.994;2024-01-11T10:12:18;179.80;1843.20
55026;DHT22;40925;45.666;18.994;2024-01-11T10:14:46;179.80;1843.20
55026;DHT22;40925;45.666;18.994;2024-01-11T10:17:12;204.90;1843.20
55026;DHT22;40925;45.666;18.994;2024-01-11T10:19:38;180.10;1817.60
55026;DHT22;40925;45.666;18.994;2024-01-11T10:22:04;205.00;1792.00
55026;DHT22;40925;45.666;18.994;2024-01-11T10:24:30;180.10;1766.40
55026;DHT22;40925;45.666;18.994;2024-01-11T10:26:59;154.30;1817.60
55026;DHT22;40925;45.666;18.994;2024-01-11T10:29:35;154.30;1894.40
55026;DHT22;40925;45.666;18.994;2024-01-11T10:32:03;179.50;1868.80
55026;DHT22;40925;45.666;18.994;2024-01-11T10:34:29;179.70;1817.60
55026;DHT22;40925;45.666;18.994;2024-01-11T10:36:56;179.80;1817.60
55026;DHT22;40925;45.666;18.994;2024-01-11T10:42:05;205.40;1740.80
55026;DHT22;40925;45.666;18.994;2024-01-11T10:44:33;180.00;1740.80
55026;DHT22;40925;45.666;18.994;2024-01-11T10:46:59;179.70;1792.00
55026;DHT22;40925;45.666;18.994;2024-01-11T10:49:27;180.00;1792.00
55026;DHT22;40925;45.666;18.994;2024-01-11T10:52:00;180.00;1792.00
55026;DHT22;40925;45.666;18.994;2024-01-11T10:54:27;179.60;1792.00
55026;DHT22;40925;45.666;18.994;2024-01-11T10:56:58;179.70;1792.00
55026;DHT22;40925;45.666;18.994;2024-01-11T10:59:32;179.80;1792.00
55026;DHT22;40925;45.666;18.994;2024-01-11T11:02:05;179.90;1766.40
55026;DHT22;40925;45.666;18.994;2024-01-11T11:04:42;179.30;1817.60
55026;DHT22;40925;45.666;18.994;2024-01-11T11:07:08;179.30;1843.20
55026;DHT22;40925;45.666;18.994;2024-01-11T11:09:35;179.80;1843.20
55026;DHT22;40925;45.666;18.994;2024-01-11T11:12:04;179.30;1843.20
55026;DHT22;40925;45.666;18.994;2024-01-11T11:14:32;179.30;1868.80
55026;DHT22;40925;45.666;18.994;2024-01-11T11:17:00;179.50;1817.60
55026;DHT22;40925;45.666;18.994;2024-01-11T11:19:26;179.50;1817.60
55026;DHT22;40925;45.666;18.994;2024-01-11T11:21:52;179.90;1817.60
55026;DHT22;40925;45.666;18.994;2024-01-11T11:24:19;179.60;1792.00
55026;DHT22;40925;45.666;18.994;2024-01-11T11:26:45;179.20;1843.20
55026;DHT22;40925;45.666;18.994;2024-01-11T11:29:11;179.60;1843.20
55026;DHT22;40925;45.666;18.994;2024-01-11T11:31:38;179.70;1817.60
55026;DHT22;40925;45.666;18.994;2024-01-11T11:34:07;179.90;1817.60
55026;DHT22;40925;45.666;18.994;2024-01-11T11:36:36;205.20;1817.60
55026;DHT22;40925;45.666;18.994;2024-01-11T11:39:02;204.90;1792.00
55026;DHT22;40925;45.666;18.994;2024-01-11T11:41:33;204.80;1817.60
55026;DHT22;40925;45.666;18.994;2024-01-11T11:44:02;204.80;1792.00
55026;DHT22;40925;45.666;18.994;2024-01-11T11:46:32;179.60;1843.20
55026;DHT22;40925;45.666;18.994;2024-01-11T11:48:58;179.60;1843.20
55026;DHT22;40925;45.666;18.994;2024-01-11T11:51:25;179.40;1843.20
55026;DHT22;40925;45.666;18.994;2024-01-11T11:53:52;179.20;1868.80
55026;DHT22;40925;45.666;18.994;2024-01-11T11:56:20;154.00;1920.00
55026;DHT22;40925;45.666;18.994;2024-01-11T11:58:46;154.00;1920.00
55026;DHT22;40925;45.666;18.994;2024-01-11T12:01:14;153.80;1920.00
55026;DHT22;40925;45.666;18.994;2024-01-11T12:03:43;154.00;1920.00
55026;DHT22;40925;45.666;18.994;2024-01-11T12:06:16;153.60;1971.20
55026;DHT22;40925;45.666;18.994;2024-01-11T12:08:43;154.10;1971.20
55026;DHT22;40925;45.666;18.994;2024-01-11T12:11:09;153.80;1920.00
55026;DHT22;40925;45.666;18.994;2024-01-11T12:13:36;153.90;1920.00
55026;DHT22;40925;45.666;18.994;2024-01-11T12:16:02;153.80;1945.60
55026;DHT22;40925;45.666;18.994;2024-01-11T12:18:28;154.10;1945.60
55026;DHT22;40925;45.666;18.994;2024-01-11T12:20:54;154.10;1920.00
55026;DHT22;40925;45.666;18.994;2024-01-11T12:23:22;154.30;1945.60
55026;DHT22;40925;45.666;18.994;2024-01-11T12:25:48;154.40;1894.40
55026;DHT22;40925;45.666;18.994;2024-01-11T12:28:14;179.20;1894.40
55026;DHT22;40925;45.666;18.994;2024-01-11T12:30:40;154.30;1920.00
55026;DHT22;40925;45.666;18.994;2024-01-11T12:33:06;154.00;1920.00
55026;DHT22;40925;45.666;18.994;2024-01-11T12:35:32;154.00;1920.00
55026;DHT22;40925;45.666;18.994;2024-01-11T12:37:59;179.30;1920.00
55026;DHT22;40925;45.666;18.994;2024-01-11T12:40:26;179.60;1894.40
55026;DHT22;40925;45.666;18.994;2024-01-11T12:42:52;154.40;1894.40
55026;DHT22;40925;45.666;18.994;2024-01-11T12:45:21;154.20;1945.60
55026;DHT22;40925;45.666;18.994;2024-01-11T12:47:48;153.90;1945.60
55026;DHT22;40925;45.666;18.994;2024-01-11T12:50:14;153.70;1971.20
55026;DHT22;40925;45.666;18.994;2024-01-11T12:52:40;153.80;1996.80
55026;DHT22;40925;45.666;18.994;2024-01-11T12:55:08;153.70;1971.20
55026;DHT22;40925;45.666;18.994;2024-01-11T12:57:34;153.60;1996.80
55026;DHT22;40925;45.666;18.994;2024-01-11T13:00:10;128.90;1996.80
55026;DHT22;40925;45.666;18.994;2024-01-11T13:02:36;128.80;2022.40
55026;DHT22;40925;45.666;18.994;2024-01-11T13:05:03;128.80;2252.80
55026;DHT22;40925;45.666;18.994;2024-01-11T13:07:30;128.80;2022.40
55026;DHT22;40925;45.666;18.994;2024-01-11T13:09:55;128.60;1996.80
55026;DHT22;40925;45.666;18.994;2024-01-11T13:12:24;128.60;1996.80
55026;DHT22;40925;45.666;18.994;2024-01-11T13:14:53;128.40;2022.40
55026;DHT22;40925;45.666;18.994;2024-01-11T13:17:20;128.30;2048.00
55026;DHT22;40925;45.666;18.994;2024-01-11T13:19:46;128.30;2073.60
55026;DHT22;40925;45.666;18.994;2024-01-11T13:22:12;128.20;2048.00
55026;DHT22;40925;45.666;18.994;2024-01-11T13:24:38;128.50;2048.00
55026;DHT22;40925;45.666;18.994;2024-01-11T13:27:04;128.20;2048.00
55026;DHT22;40925;45.666;18.994;2024-01-11T13:29:29;128.20;2073.60
55026;DHT22;40925;45.666;18.994;2024-01-11T13:31:55;128.40;2073.60
55026;DHT22;40925;45.666;18.994;2024-01-11T13:34:21;128.20;2073.60
55026;DHT22;40925;45.666;18.994;2024-01-11T13:36:47;128.10;2073.60
55026;DHT22;40925;45.666;18.994;2024-01-11T13:39:12;128.00;2073.60
55026;DHT22;40925;45.666;18.994;2024-01-11T13:51:28;128.80;2048.00
55026;DHT22;40925;45.666;18.994;2024-01-11T13:53:53;128.70;2048.00
55026;DHT22;40925;45.666;18.994;2024-01-11T13:56:19;128.00;2048.00
55026;DHT22;40925;45.666;18.994;2024-01-11T13:58:45;103.30;2048.00
55026;DHT22;40925;45.666;18.994;2024-01-11T14:01:11;103.20;2073.60
55026;DHT22;40925;45.666;18.994;2024-01-11T14:03:38;103.00;2099.20
55026;DHT22;40925;45.666;18.994;2024-01-11T14:06:05;102.80;2124.80
55026;DHT22;40925;45.666;18.994;2024-01-11T14:08:30;102.80;2124.80
55026;DHT22;40925;45.666;18.994;2024-01-11T14:10:56;102.60;2124.80
55026;DHT22;40925;45.666;18.994;2024-01-11T14:13:23;102.40;2176.00
55026;DHT22;40925;45.666;18.994;2024-01-11T14:15:49;102.40;2176.00
55026;DHT22;40925;45.666;18.994;2024-01-11T14:18:16;102.40;2176.00
55026;DHT22;40925;45.666;18.994;2024-01-11T14:20:44;77.60;2176.00
55026;DHT22;40925;45.666;18.994;2024-01-11T14:23:09;102.40;2201.60
55026;DHT22;40925;45.666;18.994;2024-01-11T14:25:35;77.60;2201.60
55026;DHT22;40925;45.666;18.994;2024-01-11T14:28:01;77.50;2227.20
55026;DHT22;40925;45.666;18.994;2024-01-11T14:30:26;77.60;2227.20
55026;DHT22;40925;45.666;18.994;2024-01-11T14:32:53;77.70;2201.60
55026;DHT22;40925;45.666;18.994;2024-01-11T14:35:19;77.70;2227.20
55026;DHT22;40925;45.666;18.994;2024-01-11T14:37:45;77.60;2201.60
55026;DHT22;40925;45.666;18.994;2024-01-11T14:40:11;77.30;2201.60
55026;DHT22;40925;45.666;18.994;2024-01-11T14:42:39;77.00;2227.20
55026;DHT22;40925;45.666;18.994;2024-01-11T14:45:06;52.10;2227.20
55026;DHT22;40925;45.666;18.994;2024-01-11T14:47:32;51.80;2227.20
55026;DHT22;40925;45.666;18.994;2024-01-11T14:49:59;51.70;2227.20
55026;DHT22;40925;45.666;18.994;2024-01-11T14:52:25;51.50;2227.20
55026;DHT22;40925;45.666;18.994;2024-01-11T14:54:51;51.40;2227.20
55026;DHT22;40925;45.666;18.994;2024-01-11T14:57:17;51.50;2227.20
55026;DHT22;40925;45.666;18.994;2024-01-11T14:59:45;26.50;2201.60